sensor_id;sensor_type;location;lat;lon;timestamp;temperature;humidity
7588;DHT22;3835;48.850;8.938;2023-04-03T00:02:01;2.90;99.90
7588;DHT22;3835;48.850;8.938;2023-04-03T00:04:28;3.00;99.90
7588;DHT22;3835;48.850;8.938;2023-04-03T00:06:55;2.90;99.90
7588;DHT22;3835;48.850;8.938;2023-04-03T00:09:22;2.90;99.90
7588;DHT22;3835;48.850;8.938;2023-04-03T00:11:50;2.90;99.90
7588;DHT22;3835;48.850;8.938;2023-04-03T00:14:17;2.90;99.90
7588;DHT22;3835;48.850;8.938;2023-04-03T00:16:43;2.90;99.90
7588;DHT22;3835;48.850;8.938;2023-04-03T00:19:10;2.90;99.90
7588;DHT22;3835;48.850;8.938;2023-04-03T00:21:38;2.90;99.90
7588;DHT22;3835;48.850;8.938;2023-04-03T00:24:06;2.90;99.90
7588;DHT22;3835;48.850;8.938;2023-04-03T00:26:32;2.80;99.90
7588;DHT22;3835;48.850;8.938;2023-04-03T00:29:00;2.90;99.90
7588;DHT22;3835;48.850;8.938;2023-04-03T00:31:27;2.80;99.90
7588;DHT22;3835;48.850;8.938;2023-04-03T00:33:54;2.80;99.90
7588;DHT22;3835;48.850;8.938;2023-04-03T00:36:21;2.80;99.90
7588;DHT22;3835;48.850;8.938;2023-04-03T00:38:48;2.80;99.90
7588;DHT22;3835;48.850;8.938;2023-04-03T00:41:14;2.80;99.90
7588;DHT22;3835;48.850;8.938;2023-04-03T00:43:41;2.70;99.90
7588;DHT22;3835;48.850;8.938;2023-04-03T00:46:09;2.70;99.90
7588;DHT22;3835;48.850;8.938;2023-04-03T00:48:38;2.70;99.90
7588;DHT22;3835;48.850;8.938;2023-04-03T00:51:09;2.70;99.90
7588;DHT22;3835;48.850;8.938;2023-04-03T00:53:43;2.60;99.90
7588;DHT22;3835;48.850;8.938;2023-04-03T00:56:12;2.60;99.90
7588;DHT22;3835;48.850;8.938;2023-04-03T00:58:42;2.60;99.90
7588;DHT22;3835;48.850;8.938;2023-04-03T01:01:15;2.60;99.90
7588;DHT22;3835;48.850;8.938;2023-04-03T01:03:42;2.50;99.90
7588;DHT22;3835;48.850;8.938;2023-04-03T01:06:09;2.60;99.90
7588;DHT22;3835;48.850;8.938;2023-04-03T01:08:36;2.60;99.90
7588;DHT22;3835;48.850;8.938;2023-04-03T01:11:03;2.60;99.90
7588;DHT22;3835;48.850;8.938;2023-04-03T01:13:32;2.50;99.90
7588;DHT22;3835;48.850;8.938;2023-04-03T01:16:00;2.50;99.90
7588;DHT22;3835;48.850;8.938;2023-04-03T01:18:30;2.50;99.90
7588;DHT22;3835;48.850;8.938;2023-04-03T01:21:23;2.50;99.90
7588;DHT22;3835;48.850;8.938;2023-04-03T01:24:20;2.50;99.90
7588;DHT22;3835;48.850;8.938;2023-04-03T01:26:49;2.50;99.90
7588;DHT22;3835;48.850;8.938;2023-04-03T01:29:16;2.50;99.90
7588;DHT22;3835;48.850;8.938;2023-04-03T01:31:49;2.50;99.90
7588;DHT22;3835;48.850;8.938;2023-04-03T01:34:16;2.50;99.90
7588;DHT22;3835;48.850;8.938;2023-04-03T01:36:43;2.50;99.90
7588;DHT22;3835;48.850;8.938;2023-04-03T01:39:11;2.50;99.90
7588;DHT22;3835;48.850;8.938;2023-04-03T01:41:38;2.50;99.90
7588;DHT22;3835;48.850;8.938;2023-04-03T01:44:05;2.50;99.90
7588;DHT22;3835;48.850;8.938;2023-04-03T01:46:32;2.60;99.90
7588;DHT22;3835;48.850;8.938;2023-04-03T01:49:01;2.60;99.90
7588;DHT22;3835;48.850;8.938;2023-04-03T01:51:27;2.50;99.90
7588;DHT22;3835;48.850;8.938;2023-04-03T01:53:54;2.50;99.90
7588;DHT22;3835;48.850;8.938;2023-04-03T01:56:21;2.50;99.90
7588;DHT22;3835;48.850;8.938;2023-04-03T01:58:48;2.50;99.90
7588;DHT22;3835;48.850;8.938;2023-04-03T02:01:15;2.50;99.90
7588;DHT22;3835;48.850;8.938;2023-04-03T02:03:41;2.40;99.90
7588;DHT22;3835;48.850;8.938;2023-04-03T02:06:10;2.40;99.90
7588;DHT22;3835;48.850;8.938;2023-04-03T02:08:36;2.40;99.90
7588;DHT22;3835;48.850;8.938;2023-04-03T02:11:03;2.50;99.90
7588;DHT22;3835;48.850;8.938;2023-04-03T02:13:30;2.50;99.90
7588;DHT22;3835;48.850;8.938;2023-04-03T02:15:57;2.50;99.90
7588;DHT22;3835;48.850;8.938;2023-04-03T02:18:24;2.50;99.90
7588;DHT22;3835;48.850;8.938;2023-04-03T02:20:51;2.50;99.90
7588;DHT22;3835;48.850;8.938;2023-04-03T02:23:19;2.50;99.90
7588;DHT22;3835;48.850;8.938;2023-04-03T02:25:46;2.50;99.90
7588;DHT22;3835;48.850;8.938;2023-04-03T02:28:14;2.50;99.90
7588;DHT22;3835;48.850;8.938;2023-04-03T02:30:41;2.50;99.90
7588;DHT22;3835;48.850;8.938;2023-04-03T02:33:08;2.50;99.90
7588;DHT22;3835;48.850;8.938;2023-04-03T02:35:34;2.50;99.90
7588;DHT22;3835;48.850;8.938;2023-04-03T02:38:02;2.50;99.90
7588;DHT22;3835;48.850;8.938;2023-04-03T02:40:30;2.50;99.90
7588;DHT22;3835;48.850;8.938;2023-04-03T02:42:57;2.50;99.90
7588;DHT22;3835;48.850;8.938;2023-04-03T02:45:24;2.50;99.90
7588;DHT22;3835;48.850;8.938;2023-04-03T02:47:50;2.50;99.90
7588;DHT22;3835;48.850;8.938;2023-04-03T02:50:17;2.50;99.90
7588;DHT22;3835;48.850;8.938;2023-04-03T02:52:44;2.50;99.90
7588;DHT22;3835;48.850;8.938;2023-04-03T02:55:13;2.50;99.90
7588;DHT22;3835;48.850;8.938;2023-04-03T02:57:42;2.50;99.90
7588;DHT22;3835;48.850;8.938;2023-04-03T03:00:10;2.50;99.90
7588;DHT22;3835;48.850;8.938;2023-04-03T03:02:37;2.50;99.90
7588;DHT22;3835;48.850;8.938;2023-04-03T03:05:04;2.40;99.90
7588;DHT22;3835;48.850;8.938;2023-04-03T03:07:31;2.40;99.90
7588;DHT22;3835;48.850;8.938;2023-04-03T03:09:58;2.40;99.90
7588;DHT22;3835;48.850;8.938;2023-04-03T03:12:24;2.40;99.90
7588;DHT22;3835;48.850;8.938;2023-04-03T03:14:52;2.30;99.90
7588;DHT22;3835;48.850;8.938;2023-04-03T03:17:19;2.30;99.90
7588;DHT22;3835;48.850;8.938;2023-04-03T03:19:46;2.30;99.90
7588;DHT22;3835;48.850;8.938;2023-04-03T03:22:13;2.30;99.90
7588;DHT22;3835;48.850;8.938;2023-04-03T03:24:40;2.30;99.90
7588;DHT22;3835;48.850;8.938;2023-04-03T03:27:06;2.30;99.90
7588;DHT22;3835;48.850;8.938;2023-04-03T03:29:33;2.30;99.90
7588;DHT22;3835;48.850;8.938;2023-04-03T03:32:01;2.20;99.90
7588;DHT22;3835;48.850;8.938;2023-04-03T03:34:28;2.20;99.90
7588;DHT22;3835;48.850;8.938;2023-04-03T03:36:55;2.20;99.90
7588;DHT22;3835;48.850;8.938;2023-04-03T03:39:21;2.20;99.90
7588;DHT22;3835;48.850;8.938;2023-04-03T03:41:48;2.20;99.90
7588;DHT22;3835;48.850;8.938;2023-04-03T03:44:16;2.30;99.90
7588;DHT22;3835;48.850;8.938;2023-04-03T03:46:42;2.30;99.90
7588;DHT22;3835;48.850;8.938;2023-04-03T03:49:10;2.30;99.90
7588;DHT22;3835;48.850;8.938;2023-04-03T03:51:38;2.40;99.90
7588;DHT22;3835;48.850;8.938;2023-04-03T03:54:05;2.40;99.90
7588;DHT22;3835;48.850;8.938;2023-04-03T03:56:33;2.40;99.90
7588;DHT22;3835;48.850;8.938;2023-04-03T03:59:00;2.40;99.90
7588;DHT22;3835;48.850;8.938;2023-04-03T04:01:27;2.30;99.90
7588;DHT22;3835;48.850;8.938;2023-04-03T04:03:54;2.40;99.90
7588;DHT22;3835;48.850;8.938;2023-04-03T04:06:22;2.40;99.90
7588;DHT22;3835;48.850;8.938;2023-04-03T04:08:49;2.40;99.90
7588;DHT22;3835;48.850;8.938;2023-04-03T04:11:16;2.50;99.90
7588;DHT22;3835;48.850;8.938;2023-04-03T04:13:43;2.50;99.90
7588;DHT22;3835;48.850;8.938;2023-04-03T04:16:10;2.50;99.90
7588;DHT22;3835;48.850;8.938;2023-04-03T04:18:36;2.40;99.90
7588;DHT22;3835;48.850;8.938;2023-04-03T04:21:03;2.30;99.90
7588;DHT22;3835;48.850;8.938;2023-04-03T04:23:31;2.30;99.90
7588;DHT22;3835;48.850;8.938;2023-04-03T04:25:58;2.20;99.90
7588;DHT22;3835;48.850;8.938;2023-04-03T04:28:25;2.20;99.90
7588;DHT22;3835;48.850;8.938;2023-04-03T04:30:52;2.20;99.90
7588;DHT22;3835;48.850;8.938;2023-04-03T04:33:18;2.20;99.90
7588;DHT22;3835;48.850;8.938;2023-04-03T04:35:47;2.20;99.90
7588;DHT22;3835;48.850;8.938;2023-04-03T04:38:14;2.20;99.90
7588;DHT22;3835;48.850;8.938;2023-04-03T04:40:42;2.20;99.90
7588;DHT22;3835;48.850;8.938;2023-04-03T04:43:09;2.10;99.90
7588;DHT22;3835;48.850;8.938;2023-04-03T04:45:36;2.20;99.90
7588;DHT22;3835;48.850;8.938;2023-04-03T04:48:03;2.10;99.90
7588;DHT22;3835;48.850;8.938;2023-04-03T04:50:30;2.20;99.90
7588;DHT22;3835;48.850;8.938;2023-04-03T04:52:57;2.20;99.90
7588;DHT22;3835;48.850;8.938;2023-04-03T04:55:23;2.20;99.90
7588;DHT22;3835;48.850;8.938;2023-04-03T04:57:51;2.20;99.90
7588;DHT22;3835;48.850;8.938;2023-04-03T05:00:19;2.20;99.90
7588;DHT22;3835;48.850;8.938;2023-04-03T05:02:46;2.20;99.90
7588;DHT22;3835;48.850;8.938;2023-04-03T05:05:12;2.20;99.90
7588;DHT22;3835;48.850;8.938;2023-04-03T05:07:40;2.20;99.90
7588;DHT22;3835;48.850;8.938;2023-04-03T05:10:08;2.20;99.90
7588;DHT22;3835;48.850;8.938;2023-04-03T05:12:35;2.30;99.90
7588;DHT22;3835;48.850;8.938;2023-04-03T05:15:04;2.30;99.90
7588;DHT22;3835;48.850;8.938;2023-04-03T05:17:31;2.30;99.90
7588;DHT22;3835;48.850;8.938;2023-04-03T05:19:58;2.30;99.90
7588;DHT22;3835;48.850;8.938;2023-04-03T05:22:24;2.40;99.90
7588;DHT22;3835;48.850;8.938;2023-04-03T05:24:51;2.40;99.90
7588;DHT22;3835;48.850;8.938;2023-04-03T05:27:18;2.40;99.90
7588;DHT22;3835;48.850;8.938;2023-04-03T05:29:45;2.40;99.90
7588;DHT22;3835;48.850;8.938;2023-04-03T05:32:13;2.30;99.90
7588;DHT22;3835;48.850;8.938;2023-04-03T05:34:40;2.30;99.90
7588;DHT22;3835;48.850;8.938;2023-04-03T05:37:06;2.30;99.90
7588;DHT22;3835;48.850;8.938;2023-04-03T05:39:33;2.30;99.90
7588;DHT22;3835;48.850;8.938;2023-04-03T05:42:00;2.30;99.90
7588;DHT22;3835;48.850;8.938;2023-04-03T05:44:27;2.30;99.90
7588;DHT22;3835;48.850;8.938;2023-04-03T05:46:54;2.30;99.90
7588;DHT22;3835;48.850;8.938;2023-04-03T05:49:22;2.30;99.90
7588;DHT22;3835;48.850;8.938;2023-04-03T05:51:49;2.40;99.90
7588;DHT22;3835;48.850;8.938;2023-04-03T05:54:19;2.40;99.90
7588;DHT22;3835;48.850;8.938;2023-04-03T05:56:48;2.50;99.90
7588;DHT22;3835;48.850;8.938;2023-04-03T05:59:15;2.50;99.90
7588;DHT22;3835;48.850;8.938;2023-04-03T06:01:42;2.60;99.90
7588;DHT22;3835;48.850;8.938;2023-04-03T06:04:09;2.60;99.90
7588;DHT22;3835;48.850;8.938;2023-04-03T06:06:48;2.60;99.90
7588;DHT22;3835;48.850;8.938;2023-04-03T06:09:18;2.60;99.90
7588;DHT22;3835;48.850;8.938;2023-04-03T06:11:46;2.70;99.90
7588;DHT22;3835;48.850;8.938;2023-04-03T06:14:13;2.70;99.90
7588;DHT22;3835;48.850;8.938;2023-04-03T06:16:40;2.70;99.90
7588;DHT22;3835;48.850;8.938;2023-04-03T06:19:08;2.70;99.90
7588;DHT22;3835;48.850;8.938;2023-04-03T06:21:35;2.80;99.90
7588;DHT22;3835;48.850;8.938;2023-04-03T06:24:04;2.80;99.90
7588;DHT22;3835;48.850;8.938;2023-04-03T06:26:31;2.90;99.90
7588;DHT22;3835;48.850;8.938;2023-04-03T06:28:59;2.90;99.90
7588;DHT22;3835;48.850;8.938;2023-04-03T06:31:25;2.90;99.90
7588;DHT22;3835;48.850;8.938;2023-04-03T06:33:52;2.90;99.90
7588;DHT22;3835;48.850;8.938;2023-04-03T06:36:20;2.90;99.90
7588;DHT22;3835;48.850;8.938;2023-04-03T06:38:47;2.90;99.90
7588;DHT22;3835;48.850;8.938;2023-04-03T06:41:16;2.90;99.90
7588;DHT22;3835;48.850;8.938;2023-04-03T06:43:43;2.90;99.90
7588;DHT22;3835;48.850;8.938;2023-04-03T06:46:13;2.80;99.90
7588;DHT22;3835;48.850;8.938;2023-04-03T06:48:41;2.80;99.90
7588;DHT22;3835;48.850;8.938;2023-04-03T06:51:19;2.80;99.90
7588;DHT22;3835;48.850;8.938;2023-04-03T06:53:46;2.90;99.90
7588;DHT22;3835;48.850;8.938;2023-04-03T06:56:13;2.90;99.90
7588;DHT22;3835;48.850;8.938;2023-04-03T06:58:41;2.80;99.90
7588;DHT22;3835;48.850;8.938;2023-04-03T07:01:09;2.80;99.90
7588;DHT22;3835;48.850;8.938;2023-04-03T07:03:36;2.90;99.90
7588;DHT22;3835;48.850;8.938;2023-04-03T07:06:03;2.90;99.90
7588;DHT22;3835;48.850;8.938;2023-04-03T07:08:30;2.90;99.90
7588;DHT22;3835;48.850;8.938;2023-04-03T07:10:57;3.00;99.90
7588;DHT22;3835;48.850;8.938;2023-04-03T07:13:24;3.00;99.90
7588;DHT22;3835;48.850;8.938;2023-04-03T07:15:53;3.10;99.90
7588;DHT22;3835;48.850;8.938;2023-04-03T07:18:20;3.30;99.90
7588;DHT22;3835;48.850;8.938;2023-04-03T07:20:47;3.40;99.90
7588;DHT22;3835;48.850;8.938;2023-04-03T07:23:14;3.60;99.90
7588;DHT22;3835;48.850;8.938;2023-04-03T07:25:43;3.70;99.90
7588;DHT22;3835;48.850;8.938;2023-04-03T07:28:10;3.90;99.90
7588;DHT22;3835;48.850;8.938;2023-04-03T07:30:42;4.00;99.90
7588;DHT22;3835;48.850;8.938;2023-04-03T07:33:11;4.20;99.90
7588;DHT22;3835;48.850;8.938;2023-04-03T07:35:38;4.10;99.90
7588;DHT22;3835;48.850;8.938;2023-04-03T07:38:05;4.20;99.90
7588;DHT22;3835;48.850;8.938;2023-04-03T07:40:32;4.30;99.90
7588;DHT22;3835;48.850;8.938;2023-04-03T07:42:59;4.10;99.90
7588;DHT22;3835;48.850;8.938;2023-04-03T07:45:26;4.10;99.90
7588;DHT22;3835;48.850;8.938;2023-04-03T07:47:53;4.00;99.90
7588;DHT22;3835;48.850;8.938;2023-04-03T07:50:21;4.00;99.90
7588;DHT22;3835;48.850;8.938;2023-04-03T07:52:49;4.00;99.90
7588;DHT22;3835;48.850;8.938;2023-04-03T07:55:18;4.10;99.90
7588;DHT22;3835;48.850;8.938;2023-04-03T07:57:44;3.90;99.90
7588;DHT22;3835;48.850;8.938;2023-04-03T08:00:13;4.10;99.90
7588;DHT22;3835;48.850;8.938;2023-04-03T08:02:39;4.30;99.90
7588;DHT22;3835;48.850;8.938;2023-04-03T08:05:07;4.40;99.90
7588;DHT22;3835;48.850;8.938;2023-04-03T08:07:36;4.50;99.90
7588;DHT22;3835;48.850;8.938;2023-04-03T08:10:04;4.50;99.90
7588;DHT22;3835;48.850;8.938;2023-04-03T08:12:31;4.50;99.90
7588;DHT22;3835;48.850;8.938;2023-04-03T08:14:59;4.40;99.90
7588;DHT22;3835;48.850;8.938;2023-04-03T08:17:26;4.20;99.90
7588;DHT22;3835;48.850;8.938;2023-04-03T08:19:53;4.20;99.90
7588;DHT22;3835;48.850;8.938;2023-04-03T08:22:20;4.30;99.90
7588;DHT22;3835;48.850;8.938;2023-04-03T08:24:48;4.40;99.90
7588;DHT22;3835;48.850;8.938;2023-04-03T08:27:15;4.40;99.90
7588;DHT22;3835;48.850;8.938;2023-04-03T08:29:42;4.40;99.90
7588;DHT22;3835;48.850;8.938;2023-04-03T08:32:09;4.40;99.90
7588;DHT22;3835;48.850;8.938;2023-04-03T08:34:36;4.50;99.90
7588;DHT22;3835;48.850;8.938;2023-04-03T08:37:04;4.60;99.90
7588;DHT22;3835;48.850;8.938;2023-04-03T08:39:31;4.50;99.90
7588;DHT22;3835;48.850;8.938;2023-04-03T08:42:05;4.40;99.90
7588;DHT22;3835;48.850;8.938;2023-04-03T08:44:41;4.30;99.90
7588;DHT22;3835;48.850;8.938;2023-04-03T08:47:20;4.40;99.90
7588;DHT22;3835;48.850;8.938;2023-04-03T08:49:51;4.70;99.90
7588;DHT22;3835;48.850;8.938;2023-04-03T08:52:23;4.80;99.90
7588;DHT22;3835;48.850;8.938;2023-04-03T08:54:54;4.90;99.90
7588;DHT22;3835;48.850;8.938;2023-04-03T08:57:29;4.90;99.90
7588;DHT22;3835;48.850;8.938;2023-04-03T08:59:58;4.90;99.90
7588;DHT22;3835;48.850;8.938;2023-04-03T09:02:33;5.00;99.90
7588;DHT22;3835;48.850;8.938;2023-04-03T09:05:02;5.00;99.90
7588;DHT22;3835;48.850;8.938;2023-04-03T09:07:35;5.20;99.90
7588;DHT22;3835;48.850;8.938;2023-04-03T09:10:04;5.20;99.90
7588;DHT22;3835;48.850;8.938;2023-04-03T09:12:37;5.10;99.90
7588;DHT22;3835;48.850;8.938;2023-04-03T09:15:15;5.30;99.90
7588;DHT22;3835;48.850;8.938;2023-04-03T09:17:50;5.50;99.90
7588;DHT22;3835;48.850;8.938;2023-04-03T09:20:22;5.50;99.90
7588;DHT22;3835;48.850;8.938;2023-04-03T09:22:52;5.50;99.90
7588;DHT22;3835;48.850;8.938;2023-04-03T09:25:22;5.30;99.90
7588;DHT22;3835;48.850;8.938;2023-04-03T09:27:51;5.40;99.90
7588;DHT22;3835;48.850;8.938;2023-04-03T09:30:20;5.40;99.90
7588;DHT22;3835;48.850;8.938;2023-04-03T09:32:48;5.40;99.90
7588;DHT22;3835;48.850;8.938;2023-04-03T09:35:24;5.50;99.90
7588;DHT22;3835;48.850;8.938;2023-04-03T09:37:53;5.60;99.90
7588;DHT22;3835;48.850;8.938;2023-04-03T09:40:34;5.70;99.90
7588;DHT22;3835;48.850;8.938;2023-04-03T09:43:21;5.80;99.90
7588;DHT22;3835;48.850;8.938;2023-04-03T09:45:50;6.00;99.90
7588;DHT22;3835;48.850;8.938;2023-04-03T09:48:18;5.70;99.90
7588;DHT22;3835;48.850;8.938;2023-04-03T09:50:58;5.50;99.90
7588;DHT22;3835;48.850;8.938;2023-04-03T09:53:32;5.20;99.90
7588;DHT22;3835;48.850;8.938;2023-04-03T09:56:01;5.20;99.90
7588;DHT22;3835;48.850;8.938;2023-04-03T09:58:31;5.20;99.90
7588;DHT22;3835;48.850;8.938;2023-04-03T10:01:01;5.20;99.90
7588;DHT22;3835;48.850;8.938;2023-04-03T10:03:30;5.50;99.90
7588;DHT22;3835;48.850;8.938;2023-04-03T10:05:58;5.70;99.90
7588;DHT22;3835;48.850;8.938;2023-04-03T10:08:27;5.90;99.90
7588;DHT22;3835;48.850;8.938;2023-04-03T10:11:21;6.00;99.90
7588;DHT22;3835;48.850;8.938;2023-04-03T10:13:55;6.00;99.90
7588;DHT22;3835;48.850;8.938;2023-04-03T10:16:27;5.60;99.90
7588;DHT22;3835;48.850;8.938;2023-04-03T10:19:05;5.60;99.90
7588;DHT22;3835;48.850;8.938;2023-04-03T10:21:40;5.70;99.90
7588;DHT22;3835;48.850;8.938;2023-04-03T10:24:12;5.70;99.90
7588;DHT22;3835;48.850;8.938;2023-04-03T10:26:47;5.70;99.90
7588;DHT22;3835;48.850;8.938;2023-04-03T10:29:31;5.60;99.90
7588;DHT22;3835;48.850;8.938;2023-04-03T10:32:14;5.40;99.90
7588;DHT22;3835;48.850;8.938;2023-04-03T10:34:46;5.30;99.90
7588;DHT22;3835;48.850;8.938;2023-04-03T10:37:18;5.30;99.90
7588;DHT22;3835;48.850;8.938;2023-04-03T10:39:52;5.30;99.90
7588;DHT22;3835;48.850;8.938;2023-04-03T10:42:27;5.30;99.90
7588;DHT22;3835;48.850;8.938;2023-04-03T10:45:20;5.30;99.90
7588;DHT22;3835;48.850;8.938;2023-04-03T10:47:56;5.30;99.90
7588;DHT22;3835;48.850;8.938;2023-04-03T10:50:31;5.20;99.90
7588;DHT22;3835;48.850;8.938;2023-04-03T10:53:10;5.30;99.90
7588;DHT22;3835;48.850;8.938;2023-04-03T10:55:44;5.20;99.90
7588;DHT22;3835;48.850;8.938;2023-04-03T10:58:19;5.40;99.90
7588;DHT22;3835;48.850;8.938;2023-04-03T11:00:50;5.60;99.90
7588;DHT22;3835;48.850;8.938;2023-04-03T11:03:27;5.70;99.90
7588;DHT22;3835;48.850;8.938;2023-04-03T11:05:57;5.70;99.90
7588;DHT22;3835;48.850;8.938;2023-04-03T11:08:28;5.80;99.90
7588;DHT22;3835;48.850;8.938;2023-04-03T11:10:59;5.90;99.90
7588;DHT22;3835;48.850;8.938;2023-04-03T11:13:33;5.90;99.90
7588;DHT22;3835;48.850;8.938;2023-04-03T11:16:03;5.80;99.90
7588;DHT22;3835;48.850;8.938;2023-04-03T11:18:35;6.00;99.90
7588;DHT22;3835;48.850;8.938;2023-04-03T11:21:08;6.00;99.90
7588;DHT22;3835;48.850;8.938;2023-04-03T11:23:39;5.80;99.90
7588;DHT22;3835;48.850;8.938;2023-04-03T11:26:10;5.60;99.90
7588;DHT22;3835;48.850;8.938;2023-04-03T11:28:37;5.50;99.90
7588;DHT22;3835;48.850;8.938;2023-04-03T11:31:15;5.80;99.90
7588;DHT22;3835;48.850;8.938;2023-04-03T11:33:53;5.90;99.90
7588;DHT22;3835;48.850;8.938;2023-04-03T11:36:24;6.00;99.90
7588;DHT22;3835;48.850;8.938;2023-04-03T11:38:55;6.00;99.90
7588;DHT22;3835;48.850;8.938;2023-04-03T11:41:28;6.00;99.90
7588;DHT22;3835;48.850;8.938;2023-04-03T11:43:59;5.90;99.90
7588;DHT22;3835;48.850;8.938;2023-04-03T11:46:55;5.90;99.90
7588;DHT22;3835;48.850;8.938;2023-04-03T11:49:51;6.10;99.90
7588;DHT22;3835;48.850;8.938;2023-04-03T11:58:19;6.20;99.90
7588;DHT22;3835;48.850;8.938;2023-04-03T12:01:00;6.20;99.90
7588;DHT22;3835;48.850;8.938;2023-04-03T12:10:01;6.40;99.90
7588;DHT22;3835;48.850;8.938;2023-04-03T12:12:35;6.30;99.90
7588;DHT22;3835;48.850;8.938;2023-04-03T12:21:16;6.10;99.90
7588;DHT22;3835;48.850;8.938;2023-04-03T12:24:22;6.10;99.90
7588;DHT22;3835;48.850;8.938;2023-04-03T12:27:00;5.90;99.90
7588;DHT22;3835;48.850;8.938;2023-04-03T12:29:33;5.90;99.90
7588;DHT22;3835;48.850;8.938;2023-04-03T12:32:15;5.70;99.90
7588;DHT22;3835;48.850;8.938;2023-04-03T12:34:58;5.70;99.90
7588;DHT22;3835;48.850;8.938;2023-04-03T12:37:41;5.70;99.90
7588;DHT22;3835;48.850;8.938;2023-04-03T12:40:16;5.80;99.90
7588;DHT22;3835;48.850;8.938;2023-04-03T12:43:12;5.80;99.90
7588;DHT22;3835;48.850;8.938;2023-04-03T12:45:46;6.00;99.90
7588;DHT22;3835;48.850;8.938;2023-04-03T12:48:15;6.30;99.90
7588;DHT22;3835;48.850;8.938;2023-04-03T12:50:45;6.50;99.90
7588;DHT22;3835;48.850;8.938;2023-04-03T12:53:15;6.50;99.90
7588;DHT22;3835;48.850;8.938;2023-04-03T12:55:44;6.60;99.90
7588;DHT22;3835;48.850;8.938;2023-04-03T12:58:16;6.20;99.90
7588;DHT22;3835;48.850;8.938;2023-04-03T13:00:43;6.10;99.90
7588;DHT22;3835;48.850;8.938;2023-04-03T13:03:22;6.00;99.90
7588;DHT22;3835;48.850;8.938;2023-04-03T13:05:50;5.80;99.90
7588;DHT22;3835;48.850;8.938;2023-04-03T13:08:19;5.70;99.90
7588;DHT22;3835;48.850;8.938;2023-04-03T13:10:52;5.70;99.90
7588;DHT22;3835;48.850;8.938;2023-04-03T13:13:19;5.70;99.90
7588;DHT22;3835;48.850;8.938;2023-04-03T13:15:49;5.80;99.90
7588;DHT22;3835;48.850;8.938;2023-04-03T13:18:26;6.00;99.90
7588;DHT22;3835;48.850;8.938;2023-04-03T13:20:58;6.10;99.90
7588;DHT22;3835;48.850;8.938;2023-04-03T13:23:28;6.50;99.90
7588;DHT22;3835;48.850;8.938;2023-04-03T13:25:57;6.90;99.90
7588;DHT22;3835;48.850;8.938;2023-04-03T13:28:28;6.90;99.90
7588;DHT22;3835;48.850;8.938;2023-04-03T13:31:06;6.50;99.90
7588;DHT22;3835;48.850;8.938;2023-04-03T13:33:36;6.50;99.90
7588;DHT22;3835;48.850;8.938;2023-04-03T13:36:06;6.60;99.90
7588;DHT22;3835;48.850;8.938;2023-04-03T13:38:34;6.70;99.90
7588;DHT22;3835;48.850;8.938;2023-04-03T13:41:20;6.70;99.90
7588;DHT22;3835;48.850;8.938;2023-04-03T13:43:49;6.60;99.90
7588;DHT22;3835;48.850;8.938;2023-04-03T13:46:26;6.70;99.90
7588;DHT22;3835;48.850;8.938;2023-04-03T13:48:56;6.70;99.90
7588;DHT22;3835;48.850;8.938;2023-04-03T13:51:24;6.70;99.90
7588;DHT22;3835;48.850;8.938;2023-04-03T13:53:54;6.60;99.90
7588;DHT22;3835;48.850;8.938;2023-04-03T13:56:27;6.40;99.90
7588;DHT22;3835;48.850;8.938;2023-04-03T13:59:00;6.30;99.90
7588;DHT22;3835;48.850;8.938;2023-04-03T14:01:37;6.30;99.90
7588;DHT22;3835;48.850;8.938;2023-04-03T14:04:12;6.30;99.90
7588;DHT22;3835;48.850;8.938;2023-04-03T14:06:40;6.30;99.90
7588;DHT22;3835;48.850;8.938;2023-04-03T14:09:07;6.30;99.90
7588;DHT22;3835;48.850;8.938;2023-04-03T14:11:35;6.20;99.90
7588;DHT22;3835;48.850;8.938;2023-04-03T14:14:05;6.20;99.90
7588;DHT22;3835;48.850;8.938;2023-04-03T14:16:38;6.30;99.90
7588;DHT22;3835;48.850;8.938;2023-04-03T14:19:06;6.10;99.90
7588;DHT22;3835;48.850;8.938;2023-04-03T14:21:33;6.10;99.90
7588;DHT22;3835;48.850;8.938;2023-04-03T14:24:00;6.10;99.90
7588;DHT22;3835;48.850;8.938;2023-04-03T14:26:28;6.00;99.90
7588;DHT22;3835;48.850;8.938;2023-04-03T14:28:57;5.90;99.90
7588;DHT22;3835;48.850;8.938;2023-04-03T14:31:24;5.80;99.90
7588;DHT22;3835;48.850;8.938;2023-04-03T14:33:51;5.90;99.40
7588;DHT22;3835;48.850;8.938;2023-04-03T14:36:20;5.90;99.90
7588;DHT22;3835;48.850;8.938;2023-04-03T14:38:48;5.80;99.90
7588;DHT22;3835;48.850;8.938;2023-04-03T14:41:17;5.90;99.90
7588;DHT22;3835;48.850;8.938;2023-04-03T14:43:44;6.10;99.90
7588;DHT22;3835;48.850;8.938;2023-04-03T14:46:16;6.10;99.90
7588;DHT22;3835;48.850;8.938;2023-04-03T14:48:43;6.10;99.90
7588;DHT22;3835;48.850;8.938;2023-04-03T14:51:11;6.10;99.90
7588;DHT22;3835;48.850;8.938;2023-04-03T14:53:38;6.10;99.90
7588;DHT22;3835;48.850;8.938;2023-04-03T14:56:11;6.20;99.90
7588;DHT22;3835;48.850;8.938;2023-04-03T14:58:38;6.30;99.70
7588;DHT22;3835;48.850;8.938;2023-04-03T15:01:05;6.30;99.90
7588;DHT22;3835;48.850;8.938;2023-04-03T15:03:33;6.20;98.90
7588;DHT22;3835;48.850;8.938;2023-04-03T15:06:00;6.20;99.90
7588;DHT22;3835;48.850;8.938;2023-04-03T15:08:28;6.10;99.90
7588;DHT22;3835;48.850;8.938;2023-04-03T15:10:56;6.10;99.90
7588;DHT22;3835;48.850;8.938;2023-04-03T15:13:24;6.00;99.60
7588;DHT22;3835;48.850;8.938;2023-04-03T15:15:52;6.00;99.20
7588;DHT22;3835;48.850;8.938;2023-04-03T15:18:22;6.10;99.20
7588;DHT22;3835;48.850;8.938;2023-04-03T15:20:53;6.00;98.70
7588;DHT22;3835;48.850;8.938;2023-04-03T15:23:20;6.10;99.60
7588;DHT22;3835;48.850;8.938;2023-04-03T15:25:52;5.90;98.50
7588;DHT22;3835;48.850;8.938;2023-04-03T15:28:23;6.00;99.70
7588;DHT22;3835;48.850;8.938;2023-04-03T15:30:51;6.00;99.90
7588;DHT22;3835;48.850;8.938;2023-04-03T15:33:18;5.90;99.90
7588;DHT22;3835;48.850;8.938;2023-04-03T15:35:45;5.80;99.90
7588;DHT22;3835;48.850;8.938;2023-04-03T15:38:13;5.70;98.20
7588;DHT22;3835;48.850;8.938;2023-04-03T15:40:40;5.70;98.70
7588;DHT22;3835;48.850;8.938;2023-04-03T15:43:08;5.80;97.80
7588;DHT22;3835;48.850;8.938;2023-04-03T15:45:36;6.10;99.50
7588;DHT22;3835;48.850;8.938;2023-04-03T15:48:03;6.20;96.90
7588;DHT22;3835;48.850;8.938;2023-04-03T15:50:31;6.20;97.10
7588;DHT22;3835;48.850;8.938;2023-04-03T15:52:58;6.20;97.10
7588;DHT22;3835;48.850;8.938;2023-04-03T15:55:27;6.10;97.80
7588;DHT22;3835;48.850;8.938;2023-04-03T15:57:54;6.00;98.00
7588;DHT22;3835;48.850;8.938;2023-04-03T16:00:22;6.00;98.40
7588;DHT22;3835;48.850;8.938;2023-04-03T16:02:51;5.90;97.60
7588;DHT22;3835;48.850;8.938;2023-04-03T16:05:20;5.90;99.50
7588;DHT22;3835;48.850;8.938;2023-04-03T16:07:48;5.70;99.00
7588;DHT22;3835;48.850;8.938;2023-04-03T16:10:17;5.40;98.40
7588;DHT22;3835;48.850;8.938;2023-04-03T16:12:47;5.30;98.70
7588;DHT22;3835;48.850;8.938;2023-04-03T16:15:14;5.20;98.80
7588;DHT22;3835;48.850;8.938;2023-04-03T16:17:43;5.10;98.50
7588;DHT22;3835;48.850;8.938;2023-04-03T16:20:12;5.10;98.00
7588;DHT22;3835;48.850;8.938;2023-04-03T16:22:40;5.20;98.40
7588;DHT22;3835;48.850;8.938;2023-04-03T16:25:09;5.30;99.30
7588;DHT22;3835;48.850;8.938;2023-04-03T16:27:38;5.40;98.40
7588;DHT22;3835;48.850;8.938;2023-04-03T16:30:08;5.50;98.50
7588;DHT22;3835;48.850;8.938;2023-04-03T16:32:37;5.50;98.30
7588;DHT22;3835;48.850;8.938;2023-04-03T16:35:06;5.60;98.40
7588;DHT22;3835;48.850;8.938;2023-04-03T16:37:36;5.70;97.20
7588;DHT22;3835;48.850;8.938;2023-04-03T16:40:06;5.60;97.30
7588;DHT22;3835;48.850;8.938;2023-04-03T16:42:35;5.50;96.20
7588;DHT22;3835;48.850;8.938;2023-04-03T16:45:01;5.50;97.60
7588;DHT22;3835;48.850;8.938;2023-04-03T16:47:30;5.40;97.70
7588;DHT22;3835;48.850;8.938;2023-04-03T16:49:57;5.40;99.20
7588;DHT22;3835;48.850;8.938;2023-04-03T16:52:25;5.40;97.70